createdAt,value
2022-08-05T00:00:17.329Z,18.80
2022-08-05T00:02:51.358Z,18.80
2022-08-05T00:06:01.740Z,18.80
2022-08-05T00:08:34.642Z,18.80
2022-08-05T00:11:03.525Z,18.70
2022-08-05T00:13:38.066Z,18.80
2022-08-05T00:16:10.883Z,18.80
2022-08-05T00:18:49.412Z,18.80
2022-08-05T00:21:18.907Z,18.80
2022-08-05T00:24:05.200Z,18.70
2022-08-05T00:26:35.788Z,18.90
2022-08-05T00:29:03.581Z,19.00
2022-08-05T00:31:54.457Z,18.90
2022-08-05T00:34:56.409Z,18.90
2022-08-05T00:37:10.347Z,18.90
2022-08-05T00:39:57.985Z,18.80
2022-08-05T00:42:35.528Z,18.70
2022-08-05T00:45:08.727Z,18.60
2022-08-05T00:47:56.250Z,18.50
2022-08-05T00:50:25.761Z,18.40
2022-08-05T00:52:55.058Z,18.40
2022-08-05T00:55:42.579Z,18.30
2022-08-05T00:58:13.263Z,18.40
2022-08-05T01:00:42.292Z,18.40
2022-08-05T01:03:12.628Z,18.40
2022-08-05T01:05:54.441Z,18.30
2022-08-05T01:08:41.886Z,18.20
2022-08-05T01:11:33.457Z,18.20
2022-08-05T01:14:15.634Z,18.00
2022-08-05T01:17:29.823Z,18.10
2022-08-05T01:20:20.435Z,18.00
2022-08-05T01:23:14.306Z,18.00
2022-08-05T01:26:01.230Z,18.00
2022-08-05T01:29:05.332Z,18.00
2022-08-05T01:31:54.894Z,17.90
2022-08-05T01:34:52.364Z,17.90
2022-08-05T01:37:36.741Z,17.90
2022-08-05T01:40:14.247Z,17.90
2022-08-05T01:42:47.933Z,17.90
2022-08-05T01:45:16.991Z,17.80
2022-08-05T01:47:47.780Z,17.80
2022-08-05T01:50:28.615Z,17.80
2022-08-05T01:53:02.286Z,17.80
2022-08-05T01:55:36.326Z,17.80
2022-08-05T01:58:10.212Z,17.80
2022-08-05T02:00:45.889Z,17.80
2022-08-05T02:03:31.538Z,17.90
2022-08-05T02:06:24.012Z,17.90
2022-08-05T02:08:58.294Z,18.00
2022-08-05T02:11:34.518Z,18.00
2022-08-05T02:14:27.689Z,18.00
2022-08-05T02:16:59.074Z,18.00
2022-08-05T02:19:40.594Z,17.90
2022-08-05T02:22:29.823Z,18.00
2022-08-05T02:25:08.569Z,18.00
2022-08-05T02:27:59.461Z,18.00
2022-08-05T02:30:35.150Z,17.90
2022-08-05T02:33:06.714Z,18.00
2022-08-05T02:35:37.672Z,18.00
2022-08-05T02:38:19.285Z,18.00
2022-08-05T02:40:47.795Z,17.90
2022-08-05T02:43:18.080Z,17.90
2022-08-05T02:45:51.889Z,18.00
2022-08-05T02:48:29.427Z,18.10
2022-08-05T02:51:01.983Z,18.10
2022-08-05T02:53:35.953Z,18.10
2022-08-05T02:56:16.010Z,18.20
2022-08-05T02:58:51.299Z,18.20
2022-08-05T03:01:25.336Z,18.20
2022-08-05T03:04:12.015Z,18.20
2022-08-05T03:06:56.815Z,18.30
2022-08-05T03:09:38.221Z,18.30
2022-08-05T03:12:10.359Z,18.40
2022-08-05T03:14:45.814Z,18.60
2022-08-05T03:17:14.577Z,18.90
2022-08-05T03:19:42.481Z,19.30
2022-08-05T03:22:16.740Z,19.80
2022-08-05T03:24:50.679Z,20.30
2022-08-05T03:27:20.669Z,20.70
2022-08-05T03:30:07.735Z,21.10
2022-08-05T03:32:39.012Z,21.80
2022-08-05T03:35:09.007Z,22.40
2022-08-05T03:37:45.906Z,22.80
2022-08-05T03:40:31.484Z,23.10
2022-08-05T03:43:01.326Z,23.30
2022-08-05T03:45:58.315Z,23.60
2022-08-05T03:48:30.694Z,23.70
2022-08-05T03:52:48.601Z,23.70
2022-08-05T03:55:52.519Z,23.80
2022-08-05T03:57:42.301Z,23.80
2022-08-05T04:00:16.460Z,23.80
2022-08-05T04:02:57.943Z,23.80
2022-08-05T04:05:33.739Z,23.90
2022-08-05T04:08:30.220Z,24.00
2022-08-05T04:10:56.692Z,24.00
2022-08-05T04:13:25.283Z,23.90
2022-08-05T04:16:04.314Z,24.00
2022-08-05T04:18:34.519Z,24.00
2022-08-05T04:21:04.126Z,24.00
2022-08-05T04:24:05.344Z,24.00
2022-08-05T04:26:21.816Z,23.90
2022-08-05T04:28:51.291Z,23.90
2022-08-05T04:31:20.632Z,23.90
2022-08-05T04:34:17.734Z,23.90
2022-08-05T04:36:45.266Z,23.90
2022-08-05T04:39:14.759Z,23.90
2022-08-05T04:41:42.531Z,23.90
2022-08-05T04:44:13.016Z,23.80
2022-08-05T04:46:40.793Z,23.80
2022-08-05T04:49:15.058Z,23.90
2022-08-05T04:51:44.054Z,23.90
2022-08-05T04:54:14.527Z,23.90
2022-08-05T04:56:41.815Z,23.80
2022-08-05T04:59:21.619Z,23.90
2022-08-05T05:02:08.159Z,23.90
2022-08-05T05:04:47.648Z,23.90
2022-08-05T05:07:17.467Z,23.90
2022-08-05T05:09:45.599Z,23.90
2022-08-05T05:12:12.593Z,23.90
2022-08-05T05:14:49.274Z,24.00
2022-08-05T05:17:23.907Z,24.00
2022-08-05T05:19:56.547Z,24.20
2022-08-05T05:22:26.382Z,24.30
2022-08-05T05:24:58.587Z,24.50
2022-08-05T05:27:44.214Z,24.70
2022-08-05T05:30:30.674Z,24.80
2022-08-05T05:33:09.106Z,24.70
2022-08-05T05:35:47.387Z,24.70
2022-08-05T05:38:22.649Z,24.70
2022-08-05T05:40:56.999Z,24.60
2022-08-05T05:43:56.430Z,24.60
2022-08-05T05:46:16.085Z,24.50
2022-08-05T05:48:48.249Z,24.50
2022-08-05T05:51:21.780Z,24.40
2022-08-05T05:53:57.292Z,24.30
2022-08-05T05:56:32.634Z,24.20
2022-08-05T05:59:07.669Z,24.20
2022-08-05T06:01:40.725Z,24.10
2022-08-05T06:04:24.857Z,24.20
2022-08-05T06:06:53.328Z,24.20
2022-08-05T06:09:25.623Z,24.20
2022-08-05T06:12:04.126Z,24.20
2022-08-05T06:14:32.071Z,24.30
2022-08-05T06:17:22.526Z,24.40
2022-08-05T06:19:56.648Z,24.50
2022-08-05T06:22:30.199Z,24.50
2022-08-05T06:25:24.401Z,24.50
2022-08-05T06:28:12.248Z,24.60
2022-08-05T06:30:40.210Z,24.60
2022-08-05T06:33:10.047Z,24.70
2022-08-05T06:36:07.488Z,24.80
2022-08-05T06:38:35.927Z,25.00
2022-08-05T06:41:08.233Z,25.10
2022-08-05T06:43:57.278Z,25.10
2022-08-05T06:46:30.052Z,25.10
2022-08-05T06:48:59.732Z,25.00
2022-08-05T06:51:31.425Z,25.00
2022-08-05T06:53:59.919Z,24.80
2022-08-05T06:56:28.397Z,24.60
2022-08-05T06:58:56.665Z,24.50
2022-08-05T07:01:32.420Z,24.40
2022-08-05T07:04:03.046Z,24.30
2022-08-05T07:06:31.977Z,24.40
2022-08-05T07:09:04.324Z,24.40
2022-08-05T07:11:37.296Z,24.40
2022-08-05T07:14:29.048Z,24.40
2022-08-05T07:18:00.304Z,24.60
2022-08-05T07:22:41.985Z,24.90
2022-08-05T07:25:53.811Z,25.00
2022-08-05T07:28:05.764Z,25.30
2022-08-05T07:30:38.902Z,25.50
2022-08-05T07:33:16.566Z,25.70
2022-08-05T07:36:05.057Z,25.90
2022-08-05T07:38:43.307Z,25.90
2022-08-05T07:42:13.506Z,25.50
2022-08-05T07:44:14.402Z,25.50
2022-08-05T07:46:49.413Z,25.40
2022-08-05T07:49:20.471Z,25.40
2022-08-05T07:51:54.363Z,25.50
2022-08-05T07:54:30.842Z,25.50
2022-08-05T07:57:18.022Z,25.40
2022-08-05T07:59:52.354Z,25.60
2022-08-05T08:02:26.478Z,25.80
2022-08-05T08:04:56.016Z,25.80
2022-08-05T08:07:24.284Z,25.90
2022-08-05T08:09:56.722Z,25.70
2022-08-05T08:12:33.267Z,25.80
2022-08-05T08:15:13.912Z,25.90
2022-08-05T08:17:52.523Z,25.70
2022-08-05T08:21:00.568Z,25.90
2022-08-05T08:24:00.407Z,26.30
2022-08-05T08:26:02.628Z,26.50
2022-08-05T08:28:37.106Z,26.30
2022-08-05T08:31:15.080Z,26.70
2022-08-05T08:33:46.132Z,26.70
2022-08-05T08:36:29.532Z,26.80
2022-08-05T08:39:15.463Z,27.00
2022-08-05T08:41:52.259Z,27.30
2022-08-05T08:45:23.067Z,27.30
2022-08-05T08:48:05.722Z,27.40
2022-08-05T08:50:29.998Z,27.90
2022-08-05T08:53:12.180Z,28.10
2022-08-05T08:56:03.891Z,27.90
2022-08-05T08:58:43.388Z,27.70
2022-08-05T09:01:16.241Z,27.90
2022-08-05T09:03:54.362Z,28.00
2022-08-05T09:06:29.269Z,28.10
2022-08-05T09:09:02.133Z,27.90
2022-08-05T09:11:51.393Z,27.80
2022-08-05T09:14:56.938Z,27.90
2022-08-05T09:17:40.252Z,28.30
2022-08-05T09:20:02.836Z,28.30
2022-08-05T09:23:18.980Z,28.00
2022-08-05T09:26:01.797Z,28.20
2022-08-05T09:28:34.503Z,28.60
2022-08-05T09:32:35.984Z,29.10
2022-08-05T09:34:06.859Z,29.50
2022-08-05T09:36:56.422Z,29.90
2022-08-05T09:42:24.084Z,30.80
2022-08-05T09:45:17.814Z,30.70
2022-08-05T09:47:55.640Z,30.80
2022-08-05T09:50:44.882Z,30.80
2022-08-05T09:53:17.482Z,31.20
2022-08-05T09:56:04.488Z,32.00
2022-08-05T09:58:32.806Z,32.00
2022-08-05T10:01:13.388Z,32.10
2022-08-05T10:03:59.758Z,32.40
2022-08-05T10:06:29.396Z,33.00
2022-08-05T10:09:27.693Z,33.40
2022-08-05T10:12:30.642Z,33.50
2022-08-05T10:15:24.306Z,34.60
2022-08-05T10:18:16.713Z,35.30
2022-08-05T10:20:53.301Z,35.10
2022-08-05T10:23:55.276Z,34.70
2022-08-05T10:26:15.255Z,34.40
2022-08-05T10:28:46.317Z,34.10
2022-08-05T10:32:48.663Z,33.40
2022-08-05T10:34:08.138Z,33.40
2022-08-05T10:36:38.668Z,33.90
2022-08-05T10:39:59.442Z,34.50
2022-08-05T10:42:32.342Z,34.90
2022-08-05T10:45:21.510Z,35.50
2022-08-05T10:48:29.407Z,36.10
2022-08-05T10:51:22.475Z,36.70
2022-08-05T10:53:54.894Z,35.70
2022-08-05T10:56:30.570Z,35.00
2022-08-05T10:59:12.798Z,34.40
2022-08-05T11:02:34.828Z,33.80
2022-08-05T11:04:59.558Z,33.30
2022-08-05T11:07:32.845Z,33.60
2022-08-05T11:10:27.372Z,34.20
2022-08-05T11:13:01.140Z,35.10
2022-08-05T11:15:58.940Z,35.90
2022-08-05T11:18:34.650Z,36.60
2022-08-05T11:21:11.852Z,37.00
2022-08-05T11:24:05.409Z,36.80
2022-08-05T11:26:43.536Z,36.80
2022-08-05T11:29:37.895Z,36.00
2022-08-05T11:32:27.938Z,35.00
2022-08-05T11:34:57.626Z,34.70
2022-08-05T11:38:29.464Z,33.90
2022-08-05T11:41:13.824Z,33.70
2022-08-05T11:44:08.351Z,33.90
2022-08-05T11:47:10.956Z,33.60
2022-08-05T11:49:42.822Z,34.40
2022-08-05T11:52:11.975Z,35.30
2022-08-05T11:54:41.320Z,36.30
2022-08-05T11:57:24.828Z,36.70
2022-08-05T11:59:54.956Z,36.30
2022-08-05T12:02:32.843Z,36.30
2022-08-05T12:05:08.105Z,37.00
2022-08-05T12:08:07.527Z,37.70
2022-08-05T12:10:45.224Z,39.00
2022-08-05T12:13:27.908Z,39.30
2022-08-05T12:16:14.840Z,39.90
2022-08-05T12:18:49.578Z,39.80
2022-08-05T12:21:24.529Z,39.00
2022-08-05T12:24:17.270Z,38.70
2022-08-05T12:26:53.916Z,38.70
2022-08-05T12:29:24.551Z,38.70
2022-08-05T12:32:02.263Z,38.90
2022-08-05T12:34:38.236Z,38.70
2022-08-05T12:37:17.475Z,38.30
2022-08-05T12:39:53.931Z,38.60
2022-08-05T12:42:21.902Z,38.30
2022-08-05T12:45:10.702Z,37.80
2022-08-05T12:47:43.471Z,37.80
2022-08-05T12:50:27.654Z,37.80
2022-08-05T12:52:59.865Z,37.90
2022-08-05T12:55:32.524Z,37.10
2022-08-05T12:58:49.607Z,36.90
2022-08-05T13:02:01.666Z,37.20
2022-08-05T13:03:41.976Z,36.20
2022-08-05T13:06:17.819Z,36.40
2022-08-05T13:08:52.421Z,36.70
2022-08-05T13:12:01.624Z,37.90
2022-08-05T13:14:36.677Z,38.50
2022-08-05T13:17:14.589Z,38.80
2022-08-05T13:19:57.250Z,38.70
2022-08-05T13:22:28.515Z,38.30
2022-08-05T13:25:00.306Z,38.00
2022-08-05T13:27:53.331Z,38.00
2022-08-05T13:30:33.583Z,37.60
2022-08-05T13:33:03.958Z,37.10
2022-08-05T13:35:47.418Z,36.80
2022-08-05T13:38:30.624Z,36.70
2022-08-05T13:41:00.597Z,37.70
2022-08-05T13:43:45.891Z,36.60
2022-08-05T13:46:30.646Z,35.70
2022-08-05T13:49:10.523Z,35.70
2022-08-05T13:51:46.425Z,35.40
2022-08-05T13:54:21.090Z,34.80
2022-08-05T13:56:53.546Z,34.00
2022-08-05T13:59:23.812Z,33.70
2022-08-05T14:01:58.337Z,34.10
2022-08-05T14:04:55.889Z,34.90
2022-08-05T14:08:00.953Z,35.70
2022-08-05T14:10:28.929Z,35.90
2022-08-05T14:12:57.434Z,36.00
2022-08-05T14:16:07.006Z,36.90
2022-08-05T14:18:23.275Z,37.00
2022-08-05T14:20:54.522Z,36.90
2022-08-05T14:23:25.237Z,37.30
2022-08-05T14:25:58.490Z,37.90
2022-08-05T14:28:30.824Z,37.80
2022-08-05T14:31:00.579Z,37.60
2022-08-05T14:33:56.706Z,36.80
2022-08-05T14:36:21.328Z,37.00
2022-08-05T14:38:51.366Z,36.50
2022-08-05T14:41:19.387Z,36.50
2022-08-05T14:44:02.084Z,35.80
2022-08-05T14:46:35.510Z,35.90
2022-08-05T14:49:07.294Z,36.00
2022-08-05T14:51:42.943Z,35.50
2022-08-05T14:54:29.701Z,35.10
2022-08-05T14:56:59.531Z,34.90
2022-08-05T14:59:29.511Z,35.30
2022-08-05T15:02:14.912Z,35.40
2022-08-05T15:04:53.334Z,35.20
2022-08-05T15:08:08.951Z,34.70
2022-08-05T15:10:09.747Z,34.30
2022-08-05T15:12:59.408Z,33.80
2022-08-05T15:15:54.885Z,33.40
2022-08-05T15:18:15.574Z,33.10
2022-08-05T15:20:46.032Z,32.90
2022-08-05T15:23:14.518Z,32.60
2022-08-05T15:25:53.448Z,32.10
2022-08-05T15:28:27.701Z,31.40
2022-08-05T15:30:56.625Z,30.90
2022-08-05T15:34:04.968Z,30.90
2022-08-05T15:36:17.652Z,30.70
2022-08-05T15:40:42.699Z,30.90
2022-08-05T15:41:55.743Z,30.90
2022-08-05T15:44:24.109Z,30.80
2022-08-05T15:46:54.373Z,30.90
2022-08-05T15:49:27.659Z,31.00
2022-08-05T15:52:16.191Z,31.00
2022-08-05T15:54:58.332Z,31.10
2022-08-05T15:57:33.100Z,30.90
2022-08-05T16:00:05.417Z,30.60
2022-08-05T16:02:33.971Z,30.80
2022-08-05T16:05:02.642Z,30.90
2022-08-05T16:07:34.421Z,30.70
2022-08-05T16:10:04.190Z,30.50
2022-08-05T16:12:31.566Z,30.50
2022-08-05T16:14:59.404Z,30.50
2022-08-05T16:17:27.678Z,30.50
2022-08-05T16:20:05.041Z,30.50
2022-08-05T16:22:36.070Z,30.50
2022-08-05T16:25:09.801Z,30.50
2022-08-05T16:28:00.942Z,30.50
2022-08-05T16:30:28.782Z,30.50
2022-08-05T16:32:58.447Z,30.70
2022-08-05T16:35:28.578Z,30.80
2022-08-05T16:38:01.942Z,30.70
2022-08-05T16:40:38.495Z,30.50
2022-08-05T16:43:07.426Z,30.60
2022-08-05T16:46:04.888Z,30.50
2022-08-05T16:48:33.095Z,30.50
2022-08-05T16:51:02.451Z,30.50
2022-08-05T16:54:02.922Z,30.30
2022-08-05T16:56:34.280Z,30.10
2022-08-05T16:59:07.519Z,29.80
2022-08-05T17:01:52.713Z,29.50
2022-08-05T17:04:28.166Z,29.30
2022-08-05T17:07:01.321Z,29.00
2022-08-05T17:09:30.589Z,29.00
2022-08-05T17:12:06.514Z,28.90
2022-08-05T17:14:38.141Z,28.90
2022-08-05T17:17:14.311Z,28.80
2022-08-05T17:19:45.668Z,28.60
2022-08-05T17:22:21.986Z,28.50
2022-08-05T17:24:57.893Z,28.50
2022-08-05T17:27:34.221Z,28.40
2022-08-05T17:30:12.219Z,28.30
2022-08-05T17:32:47.422Z,28.20
2022-08-05T17:35:20.560Z,28.00
2022-08-05T17:37:49.342Z,28.00
2022-08-05T17:40:22.629Z,27.90
2022-08-05T17:42:52.979Z,27.70
2022-08-05T17:45:24.730Z,27.50
2022-08-05T17:47:56.087Z,27.50
2022-08-05T17:50:30.832Z,27.50
2022-08-05T17:53:02.270Z,27.30
2022-08-05T17:55:38.449Z,27.20
2022-08-05T17:58:14.629Z,27.10
2022-08-05T18:00:47.630Z,27.00
2022-08-05T18:03:56.016Z,27.10
2022-08-05T18:06:11.258Z,27.00
2022-08-05T18:08:44.710Z,27.00
2022-08-05T18:11:24.199Z,26.90
2022-08-05T18:13:59.715Z,26.60
2022-08-05T18:16:27.399Z,26.50
2022-08-05T18:18:55.403Z,26.30
2022-08-05T18:21:26.140Z,26.20
2022-08-05T18:23:55.985Z,26.30
2022-08-05T18:26:27.709Z,26.30
2022-08-05T18:28:58.285Z,26.20
2022-08-05T18:31:33.978Z,26.00
2022-08-05T18:34:06.183Z,25.90
2022-08-05T18:36:39.228Z,25.70
2022-08-05T18:39:42.205Z,25.60
2022-08-05T18:42:04.613Z,25.40
2022-08-05T18:44:51.457Z,25.00
2022-08-05T18:47:26.833Z,24.80
2022-08-05T18:50:13.464Z,24.70
2022-08-05T18:52:50.734Z,24.60
2022-08-05T18:55:20.434Z,24.50
2022-08-05T18:57:53.133Z,24.40
2022-08-05T19:00:28.477Z,24.40
2022-08-05T19:03:03.570Z,24.40
2022-08-05T19:06:12.764Z,24.50
2022-08-05T19:08:30.809Z,24.60
2022-08-05T19:11:02.851Z,24.60
2022-08-05T19:13:35.947Z,24.60
2022-08-05T19:16:25.282Z,24.50
2022-08-05T19:18:56.568Z,24.50
2022-08-05T19:21:24.882Z,24.50
2022-08-05T19:24:06.802Z,24.60
2022-08-05T19:26:54.733Z,24.60
2022-08-05T19:29:36.057Z,24.60
2022-08-05T19:32:17.729Z,24.60
2022-08-05T19:34:54.913Z,24.30
2022-08-05T19:37:29.933Z,23.60
2022-08-05T19:40:10.018Z,22.50
2022-08-05T19:42:39.103Z,21.60
2022-08-05T19:45:08.028Z,20.70
2022-08-05T19:47:37.524Z,20.00
2022-08-05T19:50:07.778Z,19.50
2022-08-05T19:52:41.513Z,19.10
2022-08-05T19:56:14.353Z,18.80
2022-08-05T19:58:19.362Z,18.50
2022-08-05T20:00:45.542Z,18.40
2022-08-05T20:03:13.345Z,18.30
2022-08-05T20:05:43.257Z,18.30
2022-08-05T20:08:18.305Z,18.20
2022-08-05T20:10:49.631Z,18.10
2022-08-05T20:13:18.132Z,18.10
2022-08-05T20:15:58.257Z,18.00
2022-08-05T20:18:32.837Z,18.00
2022-08-05T20:21:01.989Z,18.00
2022-08-05T20:23:39.294Z,17.90
2022-08-05T20:26:20.400Z,17.90
2022-08-05T20:28:53.990Z,18.00
2022-08-05T20:31:36.902Z,18.00
2022-08-05T20:34:12.437Z,18.00
2022-08-05T20:36:43.376Z,17.90
2022-08-05T20:39:16.356Z,17.80
2022-08-05T20:41:47.889Z,17.70
2022-08-05T20:44:29.547Z,17.70
2022-08-05T20:47:00.186Z,17.60
2022-08-05T20:49:28.360Z,17.60
2022-08-05T20:51:57.281Z,17.60
2022-08-05T20:54:42.661Z,17.50
2022-08-05T20:57:24.767Z,17.40
2022-08-05T21:00:19.756Z,17.40
2022-08-05T21:02:56.894Z,17.50
2022-08-05T21:05:25.387Z,17.50
2022-08-05T21:08:05.458Z,17.50
2022-08-05T21:10:33.963Z,17.60
2022-08-05T21:13:11.173Z,17.60
2022-08-05T21:15:51.001Z,17.60
2022-08-05T21:18:19.358Z,17.50
2022-08-05T21:20:52.991Z,17.50
2022-08-05T21:23:20.351Z,17.50
2022-08-05T21:25:50.847Z,17.50
2022-08-05T21:28:18.728Z,17.50
2022-08-05T21:30:52.089Z,17.50
2022-08-05T21:33:22.484Z,17.40
2022-08-05T21:35:58.901Z,17.40
2022-08-05T21:38:27.893Z,17.20
2022-08-05T21:40:56.996Z,17.20
2022-08-05T21:43:25.318Z,17.20
2022-08-05T21:45:57.533Z,17.20
2022-08-05T21:48:28.885Z,17.20
2022-08-05T21:50:57.394Z,17.10
2022-08-05T21:53:27.162Z,17.10
2022-08-05T21:56:09.861Z,17.00
2022-08-05T21:58:48.423Z,16.90
2022-08-05T22:01:26.743Z,16.80
2022-08-05T22:03:55.191Z,16.80
2022-08-05T22:06:35.581Z,16.70
2022-08-05T22:09:13.887Z,16.70
2022-08-05T22:11:43.096Z,16.70
2022-08-05T22:14:32.424Z,16.80
2022-08-05T22:17:03.949Z,16.80
2022-08-05T22:20:01.116Z,16.80
2022-08-05T22:22:27.625Z,16.80
2022-08-05T22:25:20.968Z,16.70
2022-08-05T22:28:08.676Z,16.80
2022-08-05T22:30:43.877Z,16.80
2022-08-05T22:33:55.845Z,16.90
2022-08-05T22:36:09.543Z,16.90
2022-08-05T22:38:38.229Z,16.90
2022-08-05T22:41:10.864Z,16.90
2022-08-05T22:43:41.038Z,16.90
2022-08-05T22:46:13.640Z,17.00
2022-08-05T22:48:50.676Z,17.00
2022-08-05T22:51:23.262Z,17.00
2022-08-05T22:54:06.552Z,17.10
2022-08-05T22:56:34.333Z,17.10
2022-08-05T22:59:04.123Z,17.10
2022-08-05T23:02:04.311Z,17.20
2022-08-05T23:04:34.659Z,17.20
2022-08-05T23:07:03.094Z,17.20
2022-08-05T23:09:57.198Z,17.20
2022-08-05T23:12:23.796Z,17.20
2022-08-05T23:14:51.752Z,17.20
2022-08-05T23:17:32.567Z,17.30
2022-08-05T23:20:10.388Z,17.30
2022-08-05T23:22:48.485Z,17.30
2022-08-05T23:25:51.503Z,17.30
2022-08-05T23:28:08.637Z,17.20
2022-08-05T23:30:40.489Z,17.20
2022-08-05T23:33:16.113Z,17.30
2022-08-05T23:35:50.856Z,17.30
2022-08-05T23:38:19.003Z,17.20
2022-08-05T23:40:49.376Z,17.20
2022-08-05T23:43:25.031Z,17.20
2022-08-05T23:46:20.852Z,17.20
2022-08-05T23:49:00.213Z,17.20
2022-08-05T23:51:53.331Z,17.20
2022-08-05T23:54:25.317Z,17.10
2022-08-05T23:56:54.915Z,17.00
2022-08-05T23:59:27.749Z,17.10
